sensor_id;sensor_type;location;lat;lon;timestamp;pressure;altitude;pressure_sealevel;temperature;humidity
73245;BME280;61460;41.158;-73.238;2023-04-24T00:01:34;101196.33;;;24.53;46.18
73245;BME280;61460;41.158;-73.238;2023-04-24T00:04:05;101209.13;;;24.56;46.08
73245;BME280;61460;41.158;-73.238;2023-04-24T00:06:36;101227.87;;;24.53;45.93
73245;BME280;61460;41.158;-73.238;2023-04-24T00:09:06;101231.04;;;24.46;45.84
73245;BME280;61460;41.158;-73.238;2023-04-24T00:11:37;101230.99;;;24.46;45.91
73245;BME280;61460;41.158;-73.238;2023-04-24T00:14:07;101228.66;;;24.40;45.98
73245;BME280;61460;41.158;-73.238;2023-04-24T00:16:38;101227.46;;;24.39;45.80
73245;BME280;61460;41.158;-73.238;2023-04-24T00:19:09;101243.13;;;24.37;45.99
73245;BME280;61460;41.158;-73.238;2023-04-24T00:21:40;101258.39;;;24.35;45.97
73245;BME280;61460;41.158;-73.238;2023-04-24T00:24:10;101269.52;;;24.32;46.13
73245;BME280;61460;41.158;-73.238;2023-04-24T00:26:40;101280.94;;;24.29;45.90
73245;BME280;61460;41.158;-73.238;2023-04-24T00:29:11;101300.80;;;24.28;45.97
73245;BME280;61460;41.158;-73.238;2023-04-24T00:31:42;101310.15;;;24.29;46.15
73245;BME280;61460;41.158;-73.238;2023-04-24T00:34:12;101315.18;;;24.25;46.18
73245;BME280;61460;41.158;-73.238;2023-04-24T00:36:43;101321.13;;;24.24;46.24
73245;BME280;61460;41.158;-73.238;2023-04-24T00:39:14;101319.76;;;24.24;46.74
73245;BME280;61460;41.158;-73.238;2023-04-24T00:41:45;101316.35;;;24.19;46.89
73245;BME280;61460;41.158;-73.238;2023-04-24T00:44:15;101322.28;;;24.21;47.24
73245;BME280;61460;41.158;-73.238;2023-04-24T00:46:47;101335.85;;;24.20;46.82
73245;BME280;61460;41.158;-73.238;2023-04-24T00:49:16;101347.55;;;24.15;46.99
73245;BME280;61460;41.158;-73.238;2023-04-24T00:51:47;101347.01;;;24.14;46.97
73245;BME280;61460;41.158;-73.238;2023-04-24T00:54:18;101352.82;;;24.16;47.42
73245;BME280;61460;41.158;-73.238;2023-04-24T00:56:48;101354.20;;;24.12;46.90
73245;BME280;61460;41.158;-73.238;2023-04-24T00:59:19;101351.44;;;24.18;47.17
73245;BME280;61460;41.158;-73.238;2023-04-24T01:01:49;101360.71;;;24.21;47.44
73245;BME280;61460;41.158;-73.238;2023-04-24T01:04:20;101359.03;;;24.18;47.26
73245;BME280;61460;41.158;-73.238;2023-04-24T01:06:51;101354.49;;;24.19;46.12
73245;BME280;61460;41.158;-73.238;2023-04-24T01:09:23;101349.94;;;24.19;46.40
73245;BME280;61460;41.158;-73.238;2023-04-24T01:11:53;101355.63;;;24.20;46.25
73245;BME280;61460;41.158;-73.238;2023-04-24T01:14:23;101340.68;;;24.14;45.61
73245;BME280;61460;41.158;-73.238;2023-04-24T01:16:53;101333.51;;;24.13;45.83
73245;BME280;61460;41.158;-73.238;2023-04-24T01:19:24;101327.10;;;24.13;45.78
73245;BME280;61460;41.158;-73.238;2023-04-24T01:21:58;101327.16;;;24.11;45.76
73245;BME280;61460;41.158;-73.238;2023-04-24T01:24:25;101338.38;;;24.10;45.24
73245;BME280;61460;41.158;-73.238;2023-04-24T01:26:56;101344.29;;;24.11;44.70
73245;BME280;61460;41.158;-73.238;2023-04-24T01:29:27;101342.73;;;24.08;45.50
73245;BME280;61460;41.158;-73.238;2023-04-24T01:31:58;101342.59;;;24.15;45.86
73245;BME280;61460;41.158;-73.238;2023-04-24T01:34:28;101343.93;;;24.13;45.31
73245;BME280;61460;41.158;-73.238;2023-04-24T01:36:59;101342.31;;;24.11;45.53
73245;BME280;61460;41.158;-73.238;2023-04-24T01:39:29;101344.59;;;24.14;45.27
73245;BME280;61460;41.158;-73.238;2023-04-24T01:42:00;101344.98;;;24.13;44.85
73245;BME280;61460;41.158;-73.238;2023-04-24T01:44:30;101344.88;;;24.18;44.79
73245;BME280;61460;41.158;-73.238;2023-04-24T01:47:01;101347.18;;;24.20;44.91
73245;BME280;61460;41.158;-73.238;2023-04-24T01:49:32;101347.85;;;24.14;44.43
73245;BME280;61460;41.158;-73.238;2023-04-24T01:52:02;101354.97;;;24.00;45.22
73245;BME280;61460;41.158;-73.238;2023-04-24T01:54:33;101361.54;;;23.89;45.45
73245;BME280;61460;41.158;-73.238;2023-04-24T01:57:04;101365.46;;;23.91;45.49
73245;BME280;61460;41.158;-73.238;2023-04-24T01:59:34;101366.54;;;23.83;45.31
73245;BME280;61460;41.158;-73.238;2023-04-24T02:02:04;101373.51;;;23.85;45.17
73245;BME280;61460;41.158;-73.238;2023-04-24T02:04:35;101381.29;;;23.78;45.08
73245;BME280;61460;41.158;-73.238;2023-04-24T02:07:06;101389.17;;;23.59;45.52
73245;BME280;61460;41.158;-73.238;2023-04-24T02:09:36;101385.44;;;23.65;45.08
73245;BME280;61460;41.158;-73.238;2023-04-24T02:12:07;101384.37;;;23.53;45.09
73245;BME280;61460;41.158;-73.238;2023-04-24T02:14:38;101385.24;;;23.53;44.79
73245;BME280;61460;41.158;-73.238;2023-04-24T02:17:10;101389.76;;;23.50;44.83
73245;BME280;61460;41.158;-73.238;2023-04-24T02:19:39;101390.63;;;23.55;45.00
73245;BME280;61460;41.158;-73.238;2023-04-24T02:22:10;101394.64;;;23.53;45.58
73245;BME280;61460;41.158;-73.238;2023-04-24T02:24:41;101397.66;;;23.48;45.58
73245;BME280;61460;41.158;-73.238;2023-04-24T02:27:11;101397.96;;;23.54;45.86
73245;BME280;61460;41.158;-73.238;2023-04-24T02:29:42;101403.69;;;23.52;45.77
73245;BME280;61460;41.158;-73.238;2023-04-24T02:32:12;101412.89;;;23.52;45.72
73245;BME280;61460;41.158;-73.238;2023-04-24T02:34:43;101415.90;;;23.59;44.55
73245;BME280;61460;41.158;-73.238;2023-04-24T02:37:14;101414.72;;;23.52;44.75
73245;BME280;61460;41.158;-73.238;2023-04-24T02:39:44;101414.10;;;23.52;45.47
73245;BME280;61460;41.158;-73.238;2023-04-24T02:42:15;101412.92;;;23.39;44.97
73245;BME280;61460;41.158;-73.238;2023-04-24T02:44:46;101417.11;;;23.41;45.01
73245;BME280;61460;41.158;-73.238;2023-04-24T02:47:16;101408.16;;;23.42;44.94
73245;BME280;61460;41.158;-73.238;2023-04-24T02:49:47;101407.41;;;23.42;44.77
73245;BME280;61460;41.158;-73.238;2023-04-24T02:52:17;101410.22;;;23.38;44.87
73245;BME280;61460;41.158;-73.238;2023-04-24T02:54:48;101412.08;;;23.40;44.79
73245;BME280;61460;41.158;-73.238;2023-04-24T02:57:19;101413.61;;;23.32;44.93
73245;BME280;61460;41.158;-73.238;2023-04-24T02:59:49;101417.18;;;23.34;44.56
73245;BME280;61460;41.158;-73.238;2023-04-24T03:02:20;101418.90;;;23.33;45.02
73245;BME280;61460;41.158;-73.238;2023-04-24T03:04:51;101425.06;;;23.29;44.85
73245;BME280;61460;41.158;-73.238;2023-04-24T03:07:21;101427.86;;;23.31;44.60
73245;BME280;61460;41.158;-73.238;2023-04-24T03:09:52;101428.57;;;23.32;44.65
73245;BME280;61460;41.158;-73.238;2023-04-24T03:12:23;101435.50;;;23.25;44.86
73245;BME280;61460;41.158;-73.238;2023-04-24T03:14:53;101429.66;;;23.25;45.38
73245;BME280;61460;41.158;-73.238;2023-04-24T03:17:24;101433.98;;;23.25;44.88
73245;BME280;61460;41.158;-73.238;2023-04-24T03:19:54;101430.92;;;23.23;45.06
73245;BME280;61460;41.158;-73.238;2023-04-24T03:22:25;101434.06;;;23.21;44.93
73245;BME280;61460;41.158;-73.238;2023-04-24T03:24:56;101433.45;;;23.26;44.91
73245;BME280;61460;41.158;-73.238;2023-04-24T03:27:26;101425.47;;;23.20;44.89
73245;BME280;61460;41.158;-73.238;2023-04-24T03:29:57;101426.19;;;23.23;44.86
73245;BME280;61460;41.158;-73.238;2023-04-24T03:32:28;101425.29;;;23.21;44.84
73245;BME280;61460;41.158;-73.238;2023-04-24T03:34:59;101433.26;;;23.18;44.87
73245;BME280;61460;41.158;-73.238;2023-04-24T03:37:29;101429.46;;;23.22;44.93
73245;BME280;61460;41.158;-73.238;2023-04-24T03:40:00;101429.09;;;23.21;44.71
73245;BME280;61460;41.158;-73.238;2023-04-24T03:42:30;101432.22;;;23.22;44.48
73245;BME280;61460;41.158;-73.238;2023-04-24T03:45:02;101436.69;;;23.18;44.80
73245;BME280;61460;41.158;-73.238;2023-04-24T03:47:33;101439.42;;;23.14;44.80
73245;BME280;61460;41.158;-73.238;2023-04-24T03:50:03;101444.61;;;23.14;44.62
73245;BME280;61460;41.158;-73.238;2023-04-24T03:52:33;101449.66;;;23.13;44.63
73245;BME280;61460;41.158;-73.238;2023-04-24T03:55:04;101448.05;;;23.12;44.47
73245;BME280;61460;41.158;-73.238;2023-04-24T03:57:35;101446.63;;;23.09;44.59
73245;BME280;61460;41.158;-73.238;2023-04-24T04:00:07;101439.89;;;23.15;44.68
73245;BME280;61460;41.158;-73.238;2023-04-24T04:02:35;101442.65;;;23.14;44.84
73245;BME280;61460;41.158;-73.238;2023-04-24T04:05:06;101446.96;;;23.09;44.98
73245;BME280;61460;41.158;-73.238;2023-04-24T04:07:37;101454.41;;;23.12;44.80
73245;BME280;61460;41.158;-73.238;2023-04-24T04:10:08;101455.16;;;23.06;44.94
73245;BME280;61460;41.158;-73.238;2023-04-24T04:12:39;101453.52;;;23.05;44.84
73245;BME280;61460;41.158;-73.238;2023-04-24T04:15:10;101451.43;;;23.02;44.72
73245;BME280;61460;41.158;-73.238;2023-04-24T04:17:39;101453.07;;;23.03;44.68
73245;BME280;61460;41.158;-73.238;2023-04-24T04:20:10;101451.66;;;23.06;44.85
73245;BME280;61460;41.158;-73.238;2023-04-24T04:22:41;101453.56;;;23.02;44.70
73245;BME280;61460;41.158;-73.238;2023-04-24T04:25:12;101451.19;;;23.03;44.51
73245;BME280;61460;41.158;-73.238;2023-04-24T04:27:42;101445.75;;;23.03;45.05
73245;BME280;61460;41.158;-73.238;2023-04-24T04:30:13;101445.51;;;23.08;44.84
73245;BME280;61460;41.158;-73.238;2023-04-24T04:32:44;101452.13;;;23.02;45.11
73245;BME280;61460;41.158;-73.238;2023-04-24T04:35:14;101451.71;;;23.11;45.02
73245;BME280;61460;41.158;-73.238;2023-04-24T04:37:44;101462.12;;;23.11;45.10
73245;BME280;61460;41.158;-73.238;2023-04-24T04:40:15;101463.01;;;23.12;45.12
73245;BME280;61460;41.158;-73.238;2023-04-24T04:42:46;101465.15;;;23.12;45.20
73245;BME280;61460;41.158;-73.238;2023-04-24T04:45:16;101469.52;;;23.14;45.18
73245;BME280;61460;41.158;-73.238;2023-04-24T04:47:47;101466.17;;;23.12;45.27
73245;BME280;61460;41.158;-73.238;2023-04-24T04:50:19;101467.25;;;23.08;45.54
73245;BME280;61460;41.158;-73.238;2023-04-24T04:52:48;101467.10;;;23.07;45.53
73245;BME280;61460;41.158;-73.238;2023-04-24T04:55:19;101475.18;;;23.13;45.40
73245;BME280;61460;41.158;-73.238;2023-04-24T04:57:50;101483.37;;;23.09;45.60
73245;BME280;61460;41.158;-73.238;2023-04-24T05:00:20;101479.10;;;23.14;45.55
73245;BME280;61460;41.158;-73.238;2023-04-24T05:02:51;101485.68;;;23.13;45.65
73245;BME280;61460;41.158;-73.238;2023-04-24T05:05:22;101487.68;;;23.12;45.81
73245;BME280;61460;41.158;-73.238;2023-04-24T05:07:52;101485.45;;;23.12;45.86
73245;BME280;61460;41.158;-73.238;2023-04-24T05:10:23;101480.88;;;23.13;46.17
73245;BME280;61460;41.158;-73.238;2023-04-24T05:12:53;101482.42;;;23.13;46.11
73245;BME280;61460;41.158;-73.238;2023-04-24T05:15:24;101480.51;;;23.12;46.17
73245;BME280;61460;41.158;-73.238;2023-04-24T05:17:55;101477.05;;;23.11;46.31
73245;BME280;61460;41.158;-73.238;2023-04-24T05:20:25;101477.72;;;23.09;46.30
73245;BME280;61460;41.158;-73.238;2023-04-24T05:22:56;101475.79;;;23.06;46.36
73245;BME280;61460;41.158;-73.238;2023-04-24T05:25:27;101475.96;;;22.99;46.58
73245;BME280;61460;41.158;-73.238;2023-04-24T05:27:57;101481.05;;;23.13;46.18
73245;BME280;61460;41.158;-73.238;2023-04-24T05:30:28;101476.40;;;23.15;46.17
73245;BME280;61460;41.158;-73.238;2023-04-24T05:32:58;101473.89;;;23.19;46.09
73245;BME280;61460;41.158;-73.238;2023-04-24T05:35:29;101468.56;;;23.19;46.04
73245;BME280;61460;41.158;-73.238;2023-04-24T05:38:00;101467.03;;;23.21;45.80
73245;BME280;61460;41.158;-73.238;2023-04-24T05:40:30;101470.02;;;23.14;46.21
73245;BME280;61460;41.158;-73.238;2023-04-24T05:43:01;101461.58;;;23.21;46.04
73245;BME280;61460;41.158;-73.238;2023-04-24T05:45:32;101464.73;;;23.14;46.14
73245;BME280;61460;41.158;-73.238;2023-04-24T05:48:04;101467.86;;;23.18;46.13
73245;BME280;61460;41.158;-73.238;2023-04-24T05:50:33;101476.84;;;23.21;45.94
73245;BME280;61460;41.158;-73.238;2023-04-24T05:53:04;101482.99;;;23.20;45.92
73245;BME280;61460;41.158;-73.238;2023-04-24T05:55:34;101473.77;;;23.14;46.06
73245;BME280;61460;41.158;-73.238;2023-04-24T05:58:05;101464.38;;;23.09;46.18
73245;BME280;61460;41.158;-73.238;2023-04-24T06:00:36;101465.83;;;23.11;46.15
73245;BME280;61460;41.158;-73.238;2023-04-24T06:03:06;101468.94;;;23.09;46.16
73245;BME280;61460;41.158;-73.238;2023-04-24T06:05:37;101471.41;;;23.09;46.18
73245;BME280;61460;41.158;-73.238;2023-04-24T06:08:07;101470.81;;;23.09;46.24
73245;BME280;61460;41.158;-73.238;2023-04-24T06:10:38;101464.92;;;23.10;46.02
73245;BME280;61460;41.158;-73.238;2023-04-24T06:13:09;101467.94;;;23.08;46.20
73245;BME280;61460;41.158;-73.238;2023-04-24T06:15:39;101464.42;;;23.08;46.08
73245;BME280;61460;41.158;-73.238;2023-04-24T06:18:10;101467.03;;;23.05;46.17
73245;BME280;61460;41.158;-73.238;2023-04-24T06:20:41;101468.66;;;23.08;46.05
73245;BME280;61460;41.158;-73.238;2023-04-24T06:23:11;101466.66;;;23.05;46.09
73245;BME280;61460;41.158;-73.238;2023-04-24T06:25:42;101463.73;;;23.05;46.17
73245;BME280;61460;41.158;-73.238;2023-04-24T06:28:13;101463.46;;;23.05;46.06
73245;BME280;61460;41.158;-73.238;2023-04-24T06:30:43;101458.85;;;23.06;46.08
73245;BME280;61460;41.158;-73.238;2023-04-24T06:33:14;101458.07;;;23.04;46.06
73245;BME280;61460;41.158;-73.238;2023-04-24T06:35:45;101459.40;;;22.96;46.20
73245;BME280;61460;41.158;-73.238;2023-04-24T06:38:15;101456.96;;;23.02;45.97
73245;BME280;61460;41.158;-73.238;2023-04-24T06:40:46;101455.47;;;22.98;46.12
73245;BME280;61460;41.158;-73.238;2023-04-24T06:43:16;101456.15;;;23.03;46.04
73245;BME280;61460;41.158;-73.238;2023-04-24T06:45:47;101453.72;;;23.00;46.02
73245;BME280;61460;41.158;-73.238;2023-04-24T06:48:18;101450.80;;;23.02;46.00
73245;BME280;61460;41.158;-73.238;2023-04-24T06:50:48;101453.41;;;22.97;46.26
73245;BME280;61460;41.158;-73.238;2023-04-24T06:53:19;101455.57;;;22.99;46.19
73245;BME280;61460;41.158;-73.238;2023-04-24T06:55:50;101453.67;;;22.99;45.92
73245;BME280;61460;41.158;-73.238;2023-04-24T06:58:21;101450.62;;;23.01;45.79
73245;BME280;61460;41.158;-73.238;2023-04-24T07:00:51;101456.52;;;23.06;45.84
73245;BME280;61460;41.158;-73.238;2023-04-24T07:03:21;101466.23;;;23.03;46.08
73245;BME280;61460;41.158;-73.238;2023-04-24T07:05:52;101465.78;;;23.01;46.10
73245;BME280;61460;41.158;-73.238;2023-04-24T07:08:23;101466.34;;;23.03;45.82
73245;BME280;61460;41.158;-73.238;2023-04-24T07:10:53;101464.27;;;22.99;45.98
73245;BME280;61460;41.158;-73.238;2023-04-24T07:13:24;101470.93;;;22.94;46.25
73245;BME280;61460;41.158;-73.238;2023-04-24T07:15:55;101470.73;;;22.99;46.04
73245;BME280;61460;41.158;-73.238;2023-04-24T07:18:25;101463.15;;;22.94;46.07
73245;BME280;61460;41.158;-73.238;2023-04-24T07:20:56;101464.55;;;23.02;45.92
73245;BME280;61460;41.158;-73.238;2023-04-24T07:23:27;101463.75;;;22.99;45.86
73245;BME280;61460;41.158;-73.238;2023-04-24T07:25:57;101466.44;;;22.96;45.88
73245;BME280;61460;41.158;-73.238;2023-04-24T07:28:28;101467.97;;;22.99;45.71
73245;BME280;61460;41.158;-73.238;2023-04-24T07:30:58;101462.89;;;22.98;45.70
73245;BME280;61460;41.158;-73.238;2023-04-24T07:33:29;101458.92;;;22.91;45.71
73245;BME280;61460;41.158;-73.238;2023-04-24T07:36:00;101464.40;;;22.95;45.65
73245;BME280;61460;41.158;-73.238;2023-04-24T07:38:30;101465.12;;;22.94;45.80
73245;BME280;61460;41.158;-73.238;2023-04-24T07:41:01;101465.66;;;22.95;45.65
73245;BME280;61460;41.158;-73.238;2023-04-24T07:43:32;101463.53;;;23.02;45.34
73245;BME280;61460;41.158;-73.238;2023-04-24T07:46:02;101467.38;;;22.96;45.80
73245;BME280;61460;41.158;-73.238;2023-04-24T07:48:33;101470.84;;;22.99;45.44
73245;BME280;61460;41.158;-73.238;2023-04-24T07:51:04;101474.14;;;22.93;45.67
73245;BME280;61460;41.158;-73.238;2023-04-24T07:53:34;101478.07;;;22.91;45.33
73245;BME280;61460;41.158;-73.238;2023-04-24T07:56:05;101470.91;;;22.87;45.57
73245;BME280;61460;41.158;-73.238;2023-04-24T07:58:36;101464.71;;;22.80;45.57
73245;BME280;61460;41.158;-73.238;2023-04-24T08:01:06;101470.36;;;22.80;45.62
73245;BME280;61460;41.158;-73.238;2023-04-24T08:03:37;101477.17;;;22.75;45.75
73245;BME280;61460;41.158;-73.238;2023-04-24T08:06:07;101480.15;;;22.72;45.63
73245;BME280;61460;41.158;-73.238;2023-04-24T08:08:38;101487.44;;;22.63;45.94
73245;BME280;61460;41.158;-73.238;2023-04-24T08:11:09;101490.56;;;22.54;45.90
73245;BME280;61460;41.158;-73.238;2023-04-24T08:13:39;101486.94;;;22.65;46.12
73245;BME280;61460;41.158;-73.238;2023-04-24T08:16:10;101487.15;;;22.64;45.89
73245;BME280;61460;41.158;-73.238;2023-04-24T08:18:40;101486.93;;;22.71;45.50
73245;BME280;61460;41.158;-73.238;2023-04-24T08:21:11;101494.18;;;22.72;45.30
73245;BME280;61460;41.158;-73.238;2023-04-24T08:23:42;101498.45;;;22.76;45.34
73245;BME280;61460;41.158;-73.238;2023-04-24T08:26:13;101501.71;;;22.72;45.56
73245;BME280;61460;41.158;-73.238;2023-04-24T08:28:43;101512.59;;;22.70;45.51
73245;BME280;61460;41.158;-73.238;2023-04-24T08:31:14;101519.75;;;22.66;45.40
73245;BME280;61460;41.158;-73.238;2023-04-24T08:33:44;101520.80;;;22.60;45.40
73245;BME280;61460;41.158;-73.238;2023-04-24T08:36:15;101520.47;;;22.64;45.29
73245;BME280;61460;41.158;-73.238;2023-04-24T08:38:46;101522.54;;;22.63;45.11
73245;BME280;61460;41.158;-73.238;2023-04-24T08:41:18;101529.81;;;22.61;45.32
73245;BME280;61460;41.158;-73.238;2023-04-24T08:43:48;101535.52;;;22.57;45.39
73245;BME280;61460;41.158;-73.238;2023-04-24T08:46:18;101534.24;;;22.54;45.29
73245;BME280;61460;41.158;-73.238;2023-04-24T08:48:49;101541.77;;;22.59;45.25
73245;BME280;61460;41.158;-73.238;2023-04-24T08:51:20;101545.63;;;22.60;45.24
73245;BME280;61460;41.158;-73.238;2023-04-24T08:53:51;101552.54;;;22.50;45.36
73245;BME280;61460;41.158;-73.238;2023-04-24T08:56:22;101558.96;;;22.50;45.46
73245;BME280;61460;41.158;-73.238;2023-04-24T08:58:51;101558.52;;;22.58;45.44
73245;BME280;61460;41.158;-73.238;2023-04-24T09:01:23;101554.75;;;22.59;45.30
73245;BME280;61460;41.158;-73.238;2023-04-24T09:03:53;101564.73;;;22.57;45.34
73245;BME280;61460;41.158;-73.238;2023-04-24T09:06:23;101570.42;;;22.58;45.45
73245;BME280;61460;41.158;-73.238;2023-04-24T09:08:54;101566.27;;;22.47;45.58
73245;BME280;61460;41.158;-73.238;2023-04-24T09:11:25;101568.57;;;22.42;45.86
73245;BME280;61460;41.158;-73.238;2023-04-24T09:13:55;101566.81;;;22.52;45.44
73245;BME280;61460;41.158;-73.238;2023-04-24T09:16:26;101569.20;;;22.50;45.60
73245;BME280;61460;41.158;-73.238;2023-04-24T09:18:56;101566.85;;;22.45;45.81
73245;BME280;61460;41.158;-73.238;2023-04-24T09:21:31;101567.78;;;22.50;45.82
73245;BME280;61460;41.158;-73.238;2023-04-24T09:23:59;101565.56;;;22.42;45.92
73245;BME280;61460;41.158;-73.238;2023-04-24T09:26:30;101565.48;;;22.45;45.80
73245;BME280;61460;41.158;-73.238;2023-04-24T09:28:59;101561.13;;;22.49;45.69
73245;BME280;61460;41.158;-73.238;2023-04-24T09:31:30;101569.04;;;22.51;45.68
73245;BME280;61460;41.158;-73.238;2023-04-24T09:34:01;101565.30;;;22.54;45.42
73245;BME280;61460;41.158;-73.238;2023-04-24T09:36:31;101562.75;;;22.45;45.51
73245;BME280;61460;41.158;-73.238;2023-04-24T09:39:02;101565.29;;;22.47;45.57
73245;BME280;61460;41.158;-73.238;2023-04-24T09:41:32;101572.97;;;22.53;45.09
73245;BME280;61460;41.158;-73.238;2023-04-24T09:44:11;101578.06;;;22.47;45.36
73245;BME280;61460;41.158;-73.238;2023-04-24T09:46:33;101580.38;;;22.43;45.11
73245;BME280;61460;41.158;-73.238;2023-04-24T09:49:09;101584.25;;;22.43;44.85
73245;BME280;61460;41.158;-73.238;2023-04-24T09:51:35;101585.30;;;22.26;45.43
73245;BME280;61460;41.158;-73.238;2023-04-24T09:54:13;101592.67;;;22.34;45.11
73245;BME280;61460;41.158;-73.238;2023-04-24T09:56:35;101594.47;;;22.37;44.87
73245;BME280;61460;41.158;-73.238;2023-04-24T09:59:06;101595.97;;;22.40;44.63
73245;BME280;61460;41.158;-73.238;2023-04-24T10:01:37;101598.52;;;22.39;44.85
73245;BME280;61460;41.158;-73.238;2023-04-24T10:04:16;101600.86;;;22.26;45.14
73245;BME280;61460;41.158;-73.238;2023-04-24T10:06:38;101601.32;;;22.23;45.19
73245;BME280;61460;41.158;-73.238;2023-04-24T10:09:09;101606.05;;;22.30;44.89
73245;BME280;61460;41.158;-73.238;2023-04-24T10:11:42;101611.33;;;22.24;44.95
73245;BME280;61460;41.158;-73.238;2023-04-24T10:14:12;101612.44;;;22.22;45.20
73245;BME280;61460;41.158;-73.238;2023-04-24T10:16:43;101612.23;;;22.20;44.78
73245;BME280;61460;41.158;-73.238;2023-04-24T10:19:11;101612.60;;;22.16;44.96
73245;BME280;61460;41.158;-73.238;2023-04-24T10:21:43;101611.69;;;22.17;44.86
73245;BME280;61460;41.158;-73.238;2023-04-24T10:24:13;101606.09;;;22.17;44.89
73245;BME280;61460;41.158;-73.238;2023-04-24T10:26:44;101599.56;;;22.14;44.84
73245;BME280;61460;41.158;-73.238;2023-04-24T10:29:18;101596.96;;;22.09;44.63
73245;BME280;61460;41.158;-73.238;2023-04-24T10:31:44;101602.25;;;22.14;45.14
73245;BME280;61460;41.158;-73.238;2023-04-24T10:34:16;101600.61;;;22.17;44.56
73245;BME280;61460;41.158;-73.238;2023-04-24T10:36:48;101598.11;;;22.19;44.82
73245;BME280;61460;41.158;-73.238;2023-04-24T10:39:17;101594.49;;;22.16;44.53
73245;BME280;61460;41.158;-73.238;2023-04-24T10:41:49;101595.97;;;22.11;44.58
73245;BME280;61460;41.158;-73.238;2023-04-24T10:44:17;101599.59;;;22.08;44.98
73245;BME280;61460;41.158;-73.238;2023-04-24T10:46:53;101603.06;;;22.12;44.93
73245;BME280;61460;41.158;-73.238;2023-04-24T10:49:28;101596.58;;;22.04;45.16
73245;BME280;61460;41.158;-73.238;2023-04-24T10:51:51;101595.11;;;22.06;45.31
73245;BME280;61460;41.158;-73.238;2023-04-24T10:54:25;101579.24;;;22.07;45.30
73245;BME280;61460;41.158;-73.238;2023-04-24T10:56:51;101605.04;;;22.02;45.42
73245;BME280;61460;41.158;-73.238;2023-04-24T10:59:27;101620.70;;;21.92;45.56
73245;BME280;61460;41.158;-73.238;2023-04-24T11:01:54;101616.09;;;21.91;46.89
73245;BME280;61460;41.158;-73.238;2023-04-24T11:04:29;101620.63;;;22.01;46.83
73245;BME280;61460;41.158;-73.238;2023-04-24T11:06:53;101623.22;;;21.83;46.60
73245;BME280;61460;41.158;-73.238;2023-04-24T11:09:27;101629.00;;;21.95;46.74
73245;BME280;61460;41.158;-73.238;2023-04-24T11:12:03;101628.66;;;21.90;47.06
73245;BME280;61460;41.158;-73.238;2023-04-24T11:14:25;101635.59;;;21.82;47.68
73245;BME280;61460;41.158;-73.238;2023-04-24T11:16:56;101643.58;;;21.91;47.22
73245;BME280;61460;41.158;-73.238;2023-04-24T11:19:27;101642.96;;;21.85;47.30
73245;BME280;61460;41.158;-73.238;2023-04-24T11:21:59;101646.91;;;21.80;47.56
73245;BME280;61460;41.158;-73.238;2023-04-24T11:24:30;101652.32;;;21.81;47.98
73245;BME280;61460;41.158;-73.238;2023-04-24T11:27:01;101650.34;;;21.88;47.21
73245;BME280;61460;41.158;-73.238;2023-04-24T11:34:32;101626.20;;;22.40;45.72
73245;BME280;61460;41.158;-73.238;2023-04-24T11:37:01;101632.14;;;22.46;45.28
73245;BME280;61460;41.158;-73.238;2023-04-24T11:39:36;101633.45;;;22.37;46.05
73245;BME280;61460;41.158;-73.238;2023-04-24T11:42:03;101627.80;;;22.47;45.90
73245;BME280;61460;41.158;-73.238;2023-04-24T11:44:34;101622.05;;;22.39;45.98
73245;BME280;61460;41.158;-73.238;2023-04-24T11:47:04;101626.84;;;22.38;45.87
73245;BME280;61460;41.158;-73.238;2023-04-24T11:49:36;101640.31;;;22.39;45.03
73245;BME280;61460;41.158;-73.238;2023-04-24T11:52:05;101642.96;;;22.38;45.11
73245;BME280;61460;41.158;-73.238;2023-04-24T11:54:36;101639.39;;;22.44;43.94
73245;BME280;61460;41.158;-73.238;2023-04-24T11:57:06;101646.28;;;22.39;44.12
73245;BME280;61460;41.158;-73.238;2023-04-24T11:59:37;101652.79;;;22.45;43.98
73245;BME280;61460;41.158;-73.238;2023-04-24T12:02:07;101658.26;;;22.28;44.25
73245;BME280;61460;41.158;-73.238;2023-04-24T12:04:40;101660.02;;;22.32;44.73
73245;BME280;61460;41.158;-73.238;2023-04-24T12:07:09;101664.17;;;22.16;45.26
73245;BME280;61460;41.158;-73.238;2023-04-24T12:09:43;101659.17;;;22.33;44.57
73245;BME280;61460;41.158;-73.238;2023-04-24T12:12:11;101665.32;;;22.32;44.83
73245;BME280;61460;41.158;-73.238;2023-04-24T12:14:47;101671.06;;;22.38;44.57
73245;BME280;61460;41.158;-73.238;2023-04-24T12:17:11;101668.10;;;22.33;44.42
73245;BME280;61460;41.158;-73.238;2023-04-24T12:19:46;101664.72;;;22.45;44.26
73245;BME280;61460;41.158;-73.238;2023-04-24T12:22:13;101660.52;;;22.45;44.09
73245;BME280;61460;41.158;-73.238;2023-04-24T12:27:19;101667.48;;;22.52;43.80
73245;BME280;61460;41.158;-73.238;2023-04-24T12:29:52;101664.89;;;22.44;43.86
73245;BME280;61460;41.158;-73.238;2023-04-24T12:32:16;101658.61;;;22.48;43.79
73245;BME280;61460;41.158;-73.238;2023-04-24T12:34:45;101655.96;;;22.51;44.20
73245;BME280;61460;41.158;-73.238;2023-04-24T12:37:16;101654.49;;;22.46;44.12
73245;BME280;61460;41.158;-73.238;2023-04-24T12:42:25;101658.96;;;22.49;43.74
73245;BME280;61460;41.158;-73.238;2023-04-24T12:44:48;101659.12;;;22.60;43.52
73245;BME280;61460;41.158;-73.238;2023-04-24T12:47:19;101662.80;;;22.49;43.49
73245;BME280;61460;41.158;-73.238;2023-04-24T12:49:49;101662.35;;;22.48;43.94
73245;BME280;61460;41.158;-73.238;2023-04-24T12:52:20;101661.71;;;22.63;43.59
73245;BME280;61460;41.158;-73.238;2023-04-24T12:54:52;101664.10;;;22.62;43.30
73245;BME280;61460;41.158;-73.238;2023-04-24T12:57:22;101661.37;;;22.61;43.28